Time;durP1;ratioP1;P1;durP2;ratioP2;P2;SDS_P1;SDS_P2;PMS_P1;PMS_P2;Temp;Humidity;BMP_temperature;BMP_pressure;BME280_temperature;BME280_humidity;BME280_pressure;Samples;Min_cycle;Max_cycle;Signal;HPM_P1;HPM_P2
2021/01/22 00:00:55;;;;;;;0.70;0.43;;;4.60;91.60;;;;;;5092194;28;20024;-75
2021/01/22 00:03:21;;;;;;;0.60;0.40;;;4.70;91.60;;;;;;5093603;28;20077;-75
2021/01/22 00:05:48;;;;;;;3.80;0.50;;;4.70;91.80;;;;;;5094006;28;20073;-75
2021/01/22 00:08:13;;;;;;;2.07;0.30;;;4.70;91.30;;;;;;5075541;28;20112;-75
2021/01/22 00:10:39;;;;;;;3.80;0.80;;;4.70;91.20;;;;;;5093734;28;20095;-75
2021/01/22 00:13:04;;;;;;;0.43;0.20;;;4.70;91.50;;;;;;5093533;28;20024;-75
2021/01/22 00:15:30;;;;;;;1.33;0.30;;;4.70;91.30;;;;;;5092165;28;20033;-75
2021/01/22 00:17:57;;;;;;;0.97;0.20;;;4.80;91.60;;;;;;5093365;28;20036;-75
2021/01/22 00:20:22;;;;;;;0.77;0.30;;;4.90;90.50;;;;;;5075201;28;20105;-75
2021/01/22 00:22:48;;;;;;;0.70;0.30;;;4.90;91.00;;;;;;5094030;28;20028;-75
2021/01/22 00:25:14;;;;;;;1.57;0.37;;;4.80;91.10;;;;;;5075572;28;20028;-75
2021/01/22 00:27:39;;;;;;;0.73;0.30;;;4.80;90.50;;;;;;5093216;28;20111;-75
2021/01/22 00:30:05;;;;;;;1.47;0.30;;;5.00;91.00;;;;;;5092553;28;20392;-75
2021/01/22 00:32:31;;;;;;;1.97;0.30;;;5.00;90.60;;;;;;5095311;28;20060;-75
2021/01/22 00:34:56;;;;;;;1.20;0.47;;;5.00;90.70;;;;;;5097315;28;20087;-75
2021/01/22 00:37:22;;;;;;;4.07;0.70;;;4.90;90.90;;;;;;5095854;28;20024;-75
2021/01/22 00:39:48;;;;;;;3.07;1.03;;;5.00;91.00;;;;;;5095922;28;20032;-75
2021/01/22 00:42:13;;;;;;;2.07;0.70;;;5.00;90.80;;;;;;5097120;28;20158;-75
2021/01/22 00:44:40;;;;;;;4.63;0.90;;;5.10;90.50;;;;;;5095598;28;20020;-76
2021/01/22 00:47:06;;;;;;;2.47;1.07;;;5.10;90.60;;;;;;5096362;28;20024;-75
2021/01/22 00:49:31;;;;;;;2.80;0.97;;;5.00;90.70;;;;;;5096750;28;20046;-75
2021/01/22 00:51:57;;;;;;;2.37;0.80;;;5.00;90.90;;;;;;5095750;28;20032;-75
2021/01/22 00:54:23;;;;;;;2.13;1.00;;;4.90;91.10;;;;;;5096841;28;20020;-75
2021/01/22 00:56:48;;;;;;;3.57;0.80;;;4.90;91.30;;;;;;5095622;28;20528;-75
2021/01/22 00:59:14;;;;;;;1.83;0.70;;;4.90;91.20;;;;;;5096696;28;20040;-75
2021/01/22 01:01:39;;;;;;;5.60;0.87;;;5.00;91.10;;;;;;5096302;28;20020;-75
2021/01/22 01:04:05;;;;;;;2.30;0.90;;;5.00;90.70;;;;;;5097175;28;20476;-75
2021/01/22 01:06:31;;;;;;;2.80;1.00;;;4.90;90.80;;;;;;5092593;28;20024;-75
2021/01/22 01:08:56;;;;;;;5.37;1.20;;;4.90;91.10;;;;;;5078419;28;20046;-75
2021/01/22 01:11:22;;;;;;;4.80;1.90;;;5.00;91.20;;;;;;5096588;28;20035;-75
2021/01/22 01:13:47;;;;;;;3.90;2.20;;;5.00;90.80;;;;;;5078480;28;20097;-75
2021/01/22 01:16:13;;;;;;;4.73;2.43;;;4.90;90.70;;;;;;5078393;28;20035;-75
2021/01/22 01:18:38;;;;;;;3.30;2.60;;;4.80;91.00;;;;;;5096292;28;20066;-75
2021/01/22 01:21:04;;;;;;;3.60;2.07;;;4.80;91.20;;;;;;5096260;28;20032;-75
2021/01/22 01:23:30;;;;;;;5.00;2.70;;;4.80;91.40;;;;;;5096295;28;20032;-75
2021/01/22 01:25:55;;;;;;;7.30;2.43;;;4.80;91.30;;;;;;5095038;28;20388;-75
2021/01/22 01:28:21;;;;;;;6.23;2.30;;;4.80;91.40;;;;;;5096203;28;20108;-75
2021/01/22 01:30:47;;;;;;;6.37;2.70;;;4.70;91.30;;;;;;5096265;28;20024;-75
2021/01/22 01:33:12;;;;;;;7.23;2.30;;;4.60;91.50;;;;;;5096203;28;20020;-75
2021/01/22 01:35:38;;;;;;;5.37;2.00;;;4.60;91.50;;;;;;5095007;28;20371;-75
2021/01/22 01:38:04;;;;;;;5.63;1.60;;;4.70;91.50;;;;;;5096046;28;20458;-75
2021/01/22 01:40:29;;;;;;;3.03;1.50;;;4.60;91.60;;;;;;5095946;28;20450;-75
2021/01/22 01:42:55;;;;;;;4.77;1.57;;;4.50;91.60;;;;;;5095514;28;20038;-75
2021/01/22 01:45:21;;;;;;;3.40;1.13;;;4.50;91.80;;;;;;5096253;28;20043;-75
2021/01/22 01:47:46;;;;;;;3.10;1.63;;;4.50;91.80;;;;;;5095818;28;20040;-75
2021/01/22 01:50:12;;;;;;;8.07;1.40;;;4.50;91.80;;;;;;5096017;28;20028;-75
2021/01/22 01:52:38;;;;;;;7.80;1.50;;;4.40;91.90;;;;;;5094528;28;20026;-75
2021/01/22 01:55:05;;;;;;;4.47;1.20;;;4.40;92.10;;;;;;5078003;28;20490;-75
2021/01/22 01:57:31;;;;;;;6.23;1.40;;;4.40;92.20;;;;;;5094222;28;20388;-75
2021/01/22 01:59:58;;;;;;;4.97;1.30;;;4.40;92.20;;;;;;5095250;28;20119;-75
2021/01/22 02:02:24;;;;;;;4.60;2.17;;;4.30;92.20;;;;;;5077987;28;20431;-75
2021/01/22 02:04:50;;;;;;;3.40;1.50;;;4.40;92.20;;;;;;5060785;28;20104;-75
2021/01/22 02:07:15;;;;;;;4.60;1.90;;;4.40;92.10;;;;;;5095488;28;20466;-75
2021/01/22 02:09:41;;;;;;;6.00;1.90;;;4.40;92.10;;;;;;5095408;28;20028;-75
2021/01/22 02:12:07;;;;;;;3.43;1.77;;;4.40;92.20;;;;;;5077097;28;20030;-75
2021/01/22 02:14:34;;;;;;;6.23;2.23;;;4.40;92.30;;;;;;5094235;28;20020;-75
2021/01/22 02:16:59;;;;;;;6.57;2.23;;;4.30;92.20;;;;;;5077551;28;20027;-75
2021/01/22 02:19:39;;;;;;;6.67;2.00;;;4.30;92.20;;;;;;5076998;28;20094;-75
2021/01/22 02:22:04;;;;;;;4.13;2.10;;;4.40;92.30;;;;;;5078179;28;20028;-76
2021/01/22 02:24:30;;;;;;;10.10;1.90;;;4.40;92.20;;;;;;5093979;28;20038;-76
2021/01/22 02:26:56;;;;;;;7.03;1.80;;;4.50;91.90;;;;;;5077357;28;20031;-75
2021/01/22 02:29:22;;;;;;;4.17;1.83;;;4.50;91.80;;;;;;5093847;28;20027;-75
2021/01/22 02:31:48;;;;;;;4.23;2.17;;;4.60;91.80;;;;;;5095067;28;20034;-75
2021/01/22 02:34:24;;;;;;;4.37;2.23;;;4.50;91.90;;;;;;5093897;28;20024;-75
2021/01/22 02:36:50;;;;;;;5.40;1.73;;;4.50;91.90;;;;;;5093947;28;20081;-75
2021/01/22 02:39:19;;;;;;;4.07;2.07;;;4.60;91.70;;;;;;5076737;28;20384;-75
2021/01/22 02:41:44;;;;;;;5.80;2.10;;;4.60;91.70;;;;;;5060740;28;20016;-75
2021/01/22 02:44:10;;;;;;;5.23;2.30;;;4.60;91.80;;;;;;5093660;28;20517;-76
2021/01/22 02:46:36;;;;;;;4.93;1.87;;;4.50;91.70;;;;;;5094797;28;20353;-74
2021/01/22 02:49:02;;;;;;;4.23;1.80;;;4.40;91.90;;;;;;5093341;28;20044;-75
2021/01/22 02:51:27;;;;;;;7.77;1.90;;;4.40;91.90;;;;;;5094618;28;20028;-75
2021/01/22 02:53:53;;;;;;;7.83;1.77;;;4.50;91.80;;;;;;5075904;28;20080;-75
2021/01/22 02:56:46;;;;;;;4.43;2.33;;;4.50;91.80;;;;;;5094650;28;20030;-75
2021/01/22 02:59:49;;;;;;;4.67;1.67;;;4.60;91.80;;;;;;5094376;28;20028;-75
2021/01/22 03:02:21;;;;;;;6.93;2.30;;;4.60;91.60;;;;;;5092999;28;20088;-75
2021/01/22 03:04:47;;;;;;;5.30;2.00;;;4.60;91.50;;;;;;5077344;28;20464;-75
2021/01/22 03:07:18;;;;;;;5.67;2.07;;;4.60;91.40;;;;;;5076457;28;20058;-75
2021/01/22 03:09:44;;;;;;;11.18;2.50;;;4.50;91.50;;;;;;5076978;28;20024;-75
2021/01/22 03:12:10;;;;;;;10.00;2.83;;;4.50;91.60;;;;;;5076080;28;20026;-75
2021/01/22 03:14:38;;;;;;;9.50;2.43;;;4.60;91.60;;;;;;5076057;28;20020;-75
2021/01/22 03:17:03;;;;;;;5.80;2.87;;;4.50;91.60;;;;;;5076413;28;20027;-75
2021/01/22 03:19:29;;;;;;;8.00;2.90;;;4.50;91.50;;;;;;5075930;28;20032;-75
2021/01/22 03:21:54;;;;;;;7.67;2.77;;;4.50;91.50;;;;;;5093272;28;20523;-75
2021/01/22 03:24:20;;;;;;;10.27;3.87;;;4.40;91.50;;;;;;5094150;28;20534;-75
2021/01/22 03:26:46;;;;;;;5.07;2.67;;;4.40;91.60;;;;;;5094282;28;20111;-75
2021/01/22 03:29:11;;;;;;;6.57;2.60;;;4.40;91.60;;;;;;5093853;28;20028;-75
2021/01/22 03:31:37;;;;;;;6.53;2.70;;;4.40;91.70;;;;;;5093778;28;20028;-75
2021/01/22 03:34:02;;;;;;;8.57;3.30;;;4.30;91.70;;;;;;5094576;28;20024;-75
2021/01/22 03:36:28;;;;;;;4.30;2.63;;;4.30;91.90;;;;;;5093638;28;20036;-75
2021/01/22 03:38:54;;;;;;;5.03;2.67;;;4.30;91.90;;;;;;5092662;28;20109;-76
2021/01/22 03:41:19;;;;;;;5.87;2.80;;;4.30;91.90;;;;;;5092687;28;20020;-75
2021/01/22 03:43:45;;;;;;;6.80;3.07;;;4.30;91.90;;;;;;5093621;28;20025;-75
2021/01/22 03:46:12;;;;;;;6.83;2.80;;;4.30;91.80;;;;;;5093514;28;20067;-75
2021/01/22 03:48:38;;;;;;;7.70;3.00;;;4.30;91.80;;;;;;5092278;28;20378;-75
2021/01/22 03:51:04;;;;;;;6.43;2.40;;;4.30;92.00;;;;;;5092691;28;20027;-75
2021/01/22 03:53:29;;;;;;;8.00;2.60;;;4.20;91.90;;;;;;5093728;28;20420;-75
2021/01/22 03:55:55;;;;;;;3.73;2.27;;;4.30;91.90;;;;;;5093472;28;20028;-75
2021/01/22 03:58:21;;;;;;;7.40;2.67;;;4.30;91.80;;;;;;5092128;28;20455;-75
2021/01/22 04:00:46;;;;;;;8.27;2.80;;;4.30;91.90;;;;;;5093671;28;20032;-75
2021/01/22 04:03:12;;;;;;;11.03;2.70;;;4.30;91.90;;;;;;5092528;28;20029;-75
2021/01/22 04:05:37;;;;;;;10.53;3.10;;;4.20;92.00;;;;;;5094304;28;20024;-75
2021/01/22 04:08:04;;;;;;;9.43;3.30;;;4.20;92.10;;;;;;5097042;28;20103;-75
2021/01/22 04:10:30;;;;;;;6.70;3.00;;;4.20;92.00;;;;;;5096279;28;20028;-75
2021/01/22 04:12:57;;;;;;;6.97;2.50;;;4.20;92.00;;;;;;5097603;28;20039;-75
2021/01/22 04:15:22;;;;;;;5.07;2.17;;;4.20;91.90;;;;;;5097696;28;20032;-75
2021/01/22 04:17:48;;;;;;;4.50;2.17;;;4.20;91.90;;;;;;5079448;28;20043;-75
2021/01/22 04:20:20;;;;;;;7.73;2.47;;;4.20;91.80;;;;;;5097466;28;20602;-75
2021/01/22 04:22:47;;;;;;;4.93;2.27;;;4.10;91.90;;;;;;5097435;28;20205;-75
2021/01/22 04:25:12;;;;;;;7.20;2.90;;;4.10;92.10;;;;;;5096324;28;20016;-75
2021/01/22 04:27:38;;;;;;;7.20;3.10;;;4.10;92.10;;;;;;5097288;28;20034;-75
2021/01/22 04:30:04;;;;;;;7.57;2.47;;;4.10;92.10;;;;;;5097393;28;20028;-74
2021/01/22 04:32:30;;;;;;;6.47;2.47;;;4.10;92.00;;;;;;5097285;28;20073;-75
2021/01/22 04:34:56;;;;;;;6.10;2.60;;;4.10;92.00;;;;;;5097195;28;20388;-75
2021/01/22 04:37:21;;;;;;;9.63;2.77;;;4.10;92.00;;;;;;5096027;28;20069;-75
2021/01/22 04:39:47;;;;;;;9.93;3.10;;;4.10;91.90;;;;;;5097155;28;20040;-75
2021/01/22 04:42:12;;;;;;;11.00;2.90;;;4.10;91.90;;;;;;5095874;28;20116;-75
2021/01/22 04:44:38;;;;;;;7.17;2.80;;;4.00;92.00;;;;;;5097292;28;20031;-75
2021/01/22 04:47:03;;;;;;;9.00;3.30;;;4.00;92.10;;;;;;5079106;28;20523;-75
2021/01/22 04:49:29;;;;;;;9.73;3.37;;;4.00;92.10;;;;;;5078489;28;20105;-75
2021/01/22 04:51:55;;;;;;;10.37;3.17;;;4.00;92.20;;;;;;5095803;28;20024;-75
2021/01/22 04:54:28;;;;;;;10.57;3.40;;;4.00;92.10;;;;;;5078922;28;20028;-75
2021/01/22 04:56:56;;;;;;;7.03;2.80;;;4.00;92.20;;;;;;5095454;28;20021;-75
2021/01/22 04:59:24;;;;;;;9.33;2.87;;;4.00;92.20;;;;;;5078778;28;20035;-75
2021/01/22 05:01:50;;;;;;;8.53;3.53;;;4.00;92.20;;;;;;5095438;28;20073;-75
2021/01/22 05:04:17;;;;;;;11.57;3.33;;;4.00;92.10;;;;;;5078686;28;20020;-75
2021/01/22 05:06:42;;;;;;;9.83;3.23;;;4.00;92.10;;;;;;5062109;28;20016;-75
2021/01/22 05:09:08;;;;;;;13.40;3.53;;;3.90;92.10;;;;;;5095437;28;20032;-76
2021/01/22 05:11:34;;;;;;;12.07;4.13;;;3.90;92.00;;;;;;5096951;28;20029;-76
2021/01/22 05:13:59;;;;;;;7.20;3.50;;;3.90;92.00;;;;;;5096564;28;20069;-76
2021/01/22 05:16:25;;;;;;;12.13;4.20;;;3.90;92.10;;;;;;5077861;28;20052;-76
2021/01/22 05:18:51;;;;;;;8.90;3.57;;;3.80;92.30;;;;;;5095028;28;20051;-75
2021/01/22 05:21:19;;;;;;;11.07;4.30;;;3.80;92.50;;;;;;5065742;28;20540;-76
2021/01/22 05:23:44;;;;;;;11.70;3.97;;;3.80;92.40;;;;;;5054876;28;20024;-76
2021/01/22 05:26:11;;;;;;;12.87;3.90;;;3.80;92.40;;;;;;5055842;28;20468;-76
2021/01/22 05:28:44;;;;;;;13.07;3.77;;;4.00;92.40;;;;;;5038461;28;20036;-75
2021/01/22 05:31:11;;;;;;;8.47;3.20;;;4.00;92.10;;;;;;5056166;28;20029;-75
2021/01/22 05:33:40;;;;;;;6.83;3.13;;;4.00;92.20;;;;;;5054331;28;20021;-75
2021/01/22 05:36:25;;;;;;;7.70;3.43;;;4.00;92.10;;;;;;5054645;28;20462;-75
2021/01/22 05:38:55;;;;;;;9.80;3.33;;;4.10;92.10;;;;;;5055773;28;20032;-75
2021/01/22 05:41:21;;;;;;;6.97;3.40;;;4.00;92.00;;;;;;5054526;28;20024;-76
2021/01/22 05:43:46;;;;;;;7.90;3.70;;;4.10;92.00;;;;;;5054442;28;20044;-76
2021/01/22 05:46:13;;;;;;;11.37;3.40;;;4.00;91.90;;;;;;5037777;28;20104;-75
2021/01/22 05:48:39;;;;;;;7.63;3.80;;;4.00;92.00;;;;;;5054355;28;20044;-76
2021/01/22 05:51:04;;;;;;;7.57;3.60;;;4.10;91.90;;;;;;5054519;28;20478;-76
2021/01/22 05:53:30;;;;;;;6.77;3.70;;;4.10;91.80;;;;;;5038064;28;20040;-76
2021/01/22 05:56:08;;;;;;;12.37;3.83;;;4.00;92.00;;;;;;5037892;28;20040;-76
2021/01/22 05:58:34;;;;;;;9.73;3.83;;;4.00;91.80;;;;;;5055273;28;20429;-76
2021/01/22 06:01:13;;;;;;;15.27;4.43;;;4.00;91.80;;;;;;5037121;28;20474;-75
2021/01/22 06:03:40;;;;;;;10.83;3.90;;;4.00;91.80;;;;;;5055594;28;20025;-76
2021/01/22 06:06:06;;;;;;;11.17;3.93;;;3.90;91.90;;;;;;5054269;28;20378;-76
2021/01/22 06:08:32;;;;;;;9.70;3.93;;;3.90;92.00;;;;;;5054088;28;20029;-76
2021/01/22 06:10:59;;;;;;;9.40;4.37;;;4.00;91.80;;;;;;5054097;28;20078;-76
2021/01/22 06:13:26;;;;;;;16.33;4.43;;;3.90;91.80;;;;;;5037515;28;20025;-76
2021/01/22 06:15:55;;;;;;;13.43;4.60;;;3.90;91.90;;;;;;5054998;28;20029;-76
2021/01/22 06:18:23;;;;;;;8.30;4.00;;;3.90;91.90;;;;;;5037209;28;20052;-76
2021/01/22 06:20:49;;;;;;;13.30;5.00;;;3.80;92.20;;;;;;5037449;28;20025;-76
2021/01/22 06:23:15;;;;;;;9.87;4.27;;;3.80;91.90;;;;;;5020557;28;20027;-75
2021/01/22 06:25:41;;;;;;;11.67;5.27;;;3.80;91.80;;;;;;5053714;28;20078;-75
2021/01/22 06:28:08;;;;;;;12.33;5.20;;;3.90;91.70;;;;;;5053056;28;20017;-76
2021/01/22 06:30:34;;;;;;;11.97;4.80;;;3.90;91.70;;;;;;5054454;28;20063;-76
2021/01/22 06:33:00;;;;;;;10.20;5.20;;;3.90;91.60;;;;;;5054730;28;20083;-77
2021/01/22 06:35:27;;;;;;;12.73;5.13;;;3.80;91.60;;;;;;5055020;28;20071;-75
2021/01/22 06:37:53;;;;;;;11.17;4.73;;;3.80;91.70;;;;;;5037176;28;20017;-75
2021/01/22 06:40:19;;;;;;;12.90;5.23;;;3.80;91.90;;;;;;5054595;28;20041;-76
2021/01/22 06:42:45;;;;;;;18.87;5.70;;;3.80;91.80;;;;;;5053208;28;20501;-76
2021/01/22 06:45:11;;;;;;;13.87;5.67;;;3.80;91.80;;;;;;5053372;28;20040;-76
2021/01/22 06:47:36;;;;;;;15.33;5.73;;;3.80;91.80;;;;;;5053295;28;20063;-76
2021/01/22 06:50:02;;;;;;;11.70;6.20;;;3.80;91.70;;;;;;5054517;28;20043;-76
2021/01/22 06:52:27;;;;;;;13.20;5.80;;;3.80;91.60;;;;;;5053112;28;20021;-75
2021/01/22 06:54:56;;;;;;;17.50;6.13;;;3.80;91.60;;;;;;5054216;28;20104;-75
2021/01/22 06:57:22;;;;;;;14.60;5.37;;;3.80;91.80;;;;;;5054204;28;20081;-75
2021/01/22 06:59:47;;;;;;;12.93;5.73;;;3.70;91.90;;;;;;5052744;28;20115;-75
2021/01/22 07:02:32;;;;;;;17.00;5.77;;;3.70;92.00;;;;;;5053009;28;20418;-76
2021/01/22 07:04:57;;;;;;;11.20;6.30;;;3.70;91.90;;;;;;5054120;28;20025;-75
2021/01/22 07:07:45;;;;;;;14.97;6.47;;;3.70;91.90;;;;;;5054223;28;20021;-75
2021/01/22 07:10:11;;;;;;;12.70;6.23;;;3.70;92.00;;;;;;5052594;28;20055;-76
2021/01/22 07:12:37;;;;;;;12.03;6.20;;;3.70;92.00;;;;;;5054083;28;20025;-76
2021/01/22 07:15:18;;;;;;;15.33;6.17;;;3.70;92.00;;;;;;5054021;28;20382;-75
2021/01/22 07:17:44;;;;;;;18.70;6.33;;;3.70;91.80;;;;;;5053145;28;20099;-75
2021/01/22 07:20:10;;;;;;;13.87;5.70;;;3.70;92.10;;;;;;5035834;28;20104;-75
2021/01/22 07:22:51;;;;;;;12.90;5.67;;;3.70;92.20;;;;;;5053705;28;20025;-75
2021/01/22 07:25:30;;;;;;;19.37;7.00;;;3.70;92.10;;;;;;5052957;28;20027;-75
2021/01/22 07:27:55;;;;;;;10.60;5.90;;;3.70;91.90;;;;;;5052656;28;20470;-75
2021/01/22 07:30:21;;;;;;;14.20;7.00;;;3.80;92.10;;;;;;5052511;28;20040;-75
2021/01/22 07:32:51;;;;;;;14.60;6.67;;;3.90;91.60;;;;;;5053597;28;20355;-75
2021/01/22 07:35:21;;;;;;;13.30;6.33;;;3.90;91.50;;;;;;5052509;28;20446;-75
2021/01/22 07:37:47;;;;;;;14.97;6.60;;;3.80;91.70;;;;;;5053783;28;20039;-75
2021/01/22 07:40:13;;;;;;;12.40;6.20;;;3.80;91.70;;;;;;5051961;28;20037;-75
2021/01/22 07:42:39;;;;;;;16.40;6.33;;;3.80;91.70;;;;;;5053652;28;20416;-74
2021/01/22 07:45:06;;;;;;;15.60;6.47;;;3.80;91.80;;;;;;5031673;28;20031;-77
2021/01/22 07:47:32;;;;;;;13.27;6.27;;;3.80;91.80;;;;;;5051096;28;20074;-75
2021/01/22 07:49:59;;;;;;;14.27;6.80;;;3.70;91.90;;;;;;5051996;28;20024;-75
2021/01/22 07:52:26;;;;;;;13.87;6.40;;;3.70;91.90;;;;;;5053076;28;20049;-75
2021/01/22 07:54:52;;;;;;;19.23;6.70;;;3.70;92.10;;;;;;5053361;28;20079;-75
2021/01/22 07:57:21;;;;;;;10.97;6.47;;;3.70;92.10;;;;;;5053155;28;20032;-75
2021/01/22 07:59:47;;;;;;;12.37;7.03;;;3.70;92.00;;;;;;5051946;28;20033;-75
2021/01/22 08:02:16;;;;;;;10.13;6.43;;;3.70;92.00;;;;;;5053165;28;20120;-75
2021/01/22 08:04:42;;;;;;;14.10;6.53;;;3.70;92.00;;;;;;5052078;28;20021;-75
2021/01/22 08:07:08;;;;;;;19.10;7.00;;;3.70;92.00;;;;;;5035625;28;20489;-75
2021/01/22 08:09:33;;;;;;;21.60;7.33;;;3.70;92.00;;;;;;5051953;28;20031;-75
2021/01/22 08:12:06;;;;;;;11.53;6.73;;;3.70;92.10;;;;;;5051854;28;20048;-75
2021/01/22 08:14:32;;;;;;;15.87;7.57;;;3.70;92.30;;;;;;5052602;28;20107;-76
2021/01/22 08:16:58;;;;;;;15.03;7.53;;;3.70;92.00;;;;;;5053106;28;20112;-75
2021/01/22 08:19:25;;;;;;;18.83;7.83;;;3.80;91.90;;;;;;5035110;28;20033;-75
2021/01/22 08:21:50;;;;;;;17.13;7.33;;;3.80;91.70;;;;;;5035279;28;20082;-75
2021/01/22 08:24:16;;;;;;;14.97;6.77;;;3.90;91.80;;;;;;5035207;28;20021;-75
2021/01/22 08:26:42;;;;;;;14.17;7.00;;;4.00;91.50;;;;;;5035130;28;20466;-75
2021/01/22 08:29:09;;;;;;;19.37;7.50;;;4.00;91.50;;;;;;5051677;28;20032;-75
2021/01/22 08:31:34;;;;;;;17.37;7.60;;;4.00;91.70;;;;;;5051723;28;20382;-76
2021/01/22 08:34:00;;;;;;;16.63;6.77;;;4.00;91.50;;;;;;5031349;28;20037;-75
2021/01/22 08:36:27;;;;;;;20.33;7.77;;;4.00;91.50;;;;;;5031988;28;20092;-75
2021/01/22 08:38:57;;;;;;;16.93;6.83;;;4.00;91.50;;;;;;5015438;28;20061;-75
2021/01/22 08:41:26;;;;;;;17.10;7.43;;;4.00;91.60;;;;;;5031636;28;20437;-75
2021/01/22 08:43:52;;;;;;;13.17;6.30;;;4.00;91.60;;;;;;5032815;28;20100;-75
2021/01/22 08:46:18;;;;;;;14.97;6.37;;;4.00;91.60;;;;;;5015793;28;20033;-75
2021/01/22 08:48:44;;;;;;;15.97;6.93;;;4.00;91.60;;;;;;5031582;28;20030;-75
2021/01/22 08:51:10;;;;;;;11.77;5.97;;;4.10;91.60;;;;;;5015712;28;20187;-75
2021/01/22 08:53:53;;;;;;;12.40;6.13;;;4.20;91.20;;;;;;5036310;28;20437;-75
2021/01/22 08:56:21;;;;;;;14.20;6.90;;;4.30;91.20;;;;;;5020567;28;20071;-76
2021/01/22 08:59:09;;;;;;;18.53;6.17;;;4.30;91.10;;;;;;5019387;28;20421;-75
2021/01/22 09:01:48;;;;;;;14.83;6.00;;;4.30;91.00;;;;;;5036706;28;20017;-75
2021/01/22 09:04:23;;;;;;;17.50;5.93;;;4.30;90.90;;;;;;5036357;28;20072;-75
2021/01/22 09:06:56;;;;;;;20.63;6.43;;;4.40;90.90;;;;;;5035072;28;20406;-76
2021/01/22 09:09:41;;;;;;;18.03;7.00;;;4.40;91.00;;;;;;5019532;28;20025;-75
2021/01/22 09:12:24;;;;;;;12.00;7.00;;;4.50;90.60;;;;;;5035170;28;20056;-75
2021/01/22 09:15:05;;;;;;;14.53;5.93;;;4.60;90.60;;;;;;5035290;28;20092;-75
2021/01/22 09:17:38;;;;;;;18.38;5.38;;;4.70;90.40;;;;;;5036360;28;20018;-76
2021/01/22 09:20:26;;;;;;;14.37;5.63;;;4.60;90.20;;;;;;5018787;28;20493;-75
2021/01/22 09:22:53;;;;;;;14.43;5.23;;;4.60;90.60;;;;;;5035184;28;20061;-75
2021/01/22 09:25:19;;;;;;;11.50;5.43;;;4.60;90.60;;;;;;5035966;28;20021;-75
2021/01/22 09:27:46;;;;;;;15.87;5.60;;;4.60;90.60;;;;;;5018466;28;20036;-75
2021/01/22 09:30:13;;;;;;;11.17;5.33;;;4.60;90.50;;;;;;5035019;28;20031;-75
2021/01/22 09:32:40;;;;;;;10.17;5.43;;;4.60;90.50;;;;;;5034795;28;20067;-75
2021/01/22 09:35:06;;;;;;;12.60;5.60;;;4.60;90.60;;;;;;5034888;28;20076;-75
2021/01/22 09:37:32;;;;;;;14.73;6.33;;;4.70;90.40;;;;;;5035873;28;20044;-75
2021/01/22 09:39:57;;;;;;;20.27;5.63;;;4.70;90.40;;;;;;5035516;28;20529;-76
2021/01/22 09:42:23;;;;;;;14.90;5.80;;;4.70;90.60;;;;;;5024049;28;20025;-75
2021/01/22 09:44:49;;;;;;;14.77;5.17;;;4.80;90.30;;;;;;5037847;28;20060;-75
2021/01/22 09:47:14;;;;;;;17.97;5.43;;;4.80;90.20;;;;;;5054264;28;20107;-75
2021/01/22 09:49:40;;;;;;;12.20;5.17;;;4.70;90.20;;;;;;5055490;28;20466;-75
2021/01/22 09:52:06;;;;;;;12.87;5.43;;;4.70;90.40;;;;;;5055629;28;20108;-75
2021/01/22 09:54:32;;;;;;;16.27;6.60;;;4.80;90.40;;;;;;5055255;28;20029;-76
2021/01/22 09:56:57;;;;;;;17.67;5.80;;;4.80;90.30;;;;;;5053876;28;20029;-75
2021/01/22 09:59:23;;;;;;;12.07;4.97;;;4.90;90.10;;;;;;5055235;28;20059;-76
2021/01/22 10:01:49;;;;;;;10.50;5.43;;;4.90;89.80;;;;;;5054226;28;20037;-76
2021/01/22 10:04:14;;;;;;;11.37;5.20;;;5.00;90.00;;;;;;5053808;28;20060;-75
2021/01/22 10:06:40;;;;;;;15.07;6.23;;;5.00;90.00;;;;;;5053812;28;20029;-75
2021/01/22 10:09:09;;;;;;;14.37;4.90;;;5.10;90.00;;;;;;5054947;28;20075;-76
2021/01/22 10:11:39;;;;;;;14.77;5.27;;;5.20;89.00;;;;;;5054066;28;20025;-75
2021/01/22 10:14:04;;;;;;;10.03;4.47;;;5.20;88.80;;;;;;5037688;28;20367;-75
2021/01/22 10:16:31;;;;;;;13.97;4.70;;;5.10;89.20;;;;;;5053938;28;20138;-75
2021/01/22 10:18:56;;;;;;;13.80;5.00;;;5.10;89.50;;;;;;5053132;28;20044;-75
2021/01/22 10:21:22;;;;;;;12.83;5.30;;;5.20;89.80;;;;;;5054713;28;20108;-75
2021/01/22 10:23:48;;;;;;;11.77;4.40;;;5.30;89.20;;;;;;5053487;28;20036;-76
2021/01/22 10:26:14;;;;;;;10.30;4.80;;;5.40;88.60;;;;;;5053737;28;20025;-75
2021/01/22 10:28:40;;;;;;;12.17;5.00;;;5.50;88.40;;;;;;5053519;28;20573;-75
2021/01/22 10:31:06;;;;;;;12.23;4.47;;;5.50;88.40;;;;;;5036755;28;20032;-75
2021/01/22 10:33:32;;;;;;;9.40;4.43;;;5.60;88.20;;;;;;5053332;28;20033;-76
2021/01/22 10:35:57;;;;;;;17.73;5.00;;;5.60;87.60;;;;;;5036877;28;20032;-75
2021/01/22 10:38:23;;;;;;;21.10;4.90;;;5.60;88.40;;;;;;5052527;28;20021;-76
2021/01/22 10:40:49;;;;;;;17.47;5.00;;;5.70;87.80;;;;;;5053357;28;20072;-75
2021/01/22 10:43:14;;;;;;;17.57;4.60;;;5.70;87.70;;;;;;5054200;28;20040;-76
2021/01/22 10:45:40;;;;;;;16.20;4.60;;;5.70;88.00;;;;;;5054429;28;20032;-76
2021/01/22 10:48:06;;;;;;;13.10;4.00;;;5.90;87.30;;;;;;5054334;28;20106;-76
2021/01/22 10:50:32;;;;;;;10.60;4.43;;;5.80;86.80;;;;;;5054108;28;20033;-75
2021/01/22 10:52:57;;;;;;;11.53;4.30;;;5.80;86.90;;;;;;5052837;28;20042;-77
2021/01/22 10:55:23;;;;;;;12.73;4.20;;;5.80;86.30;;;;;;5053172;28;20025;-76
2021/01/22 10:57:49;;;;;;;13.97;4.20;;;5.80;87.40;;;;;;5054306;28;20029;-76
2021/01/22 11:00:15;;;;;;;11.50;4.03;;;5.80;87.00;;;;;;5054338;28;20406;-76
2021/01/22 11:02:41;;;;;;;12.37;3.50;;;5.80;87.00;;;;;;5052972;28;20033;-77
2021/01/22 11:05:07;;;;;;;11.30;3.77;;;5.80;86.40;;;;;;5036517;28;20040;-76
2021/01/22 11:07:33;;;;;;;9.17;3.67;;;5.80;86.60;;;;;;5052981;28;20021;-77
2021/01/22 11:09:58;;;;;;;17.23;4.33;;;5.80;87.20;;;;;;5054146;28;20040;-76
2021/01/22 11:12:24;;;;;;;12.87;3.83;;;5.90;87.00;;;;;;5054439;28;20037;-74
2021/01/22 11:14:49;;;;;;;10.70;3.50;;;6.00;86.20;;;;;;5052167;28;20065;-73
2021/01/22 11:17:15;;;;;;;12.30;3.63;;;6.10;86.60;;;;;;5053456;28;20037;-74
2021/01/22 11:19:41;;;;;;;12.40;4.07;;;6.10;85.80;;;;;;5053883;28;20066;-74
2021/01/22 11:22:06;;;;;;;14.10;3.80;;;6.20;86.60;;;;;;5053619;28;20037;-74
2021/01/22 11:24:34;;;;;;;15.13;4.47;;;6.20;85.90;;;;;;5054117;28;20029;-74
2021/01/22 11:27:00;;;;;;;14.70;5.23;;;6.20;85.70;;;;;;5051877;28;20075;-75
2021/01/22 11:29:25;;;;;;;12.00;4.03;;;6.30;86.00;;;;;;5052586;28;20032;-74
2021/01/22 11:31:51;;;;;;;18.50;4.13;;;6.40;85.00;;;;;;5053671;28;20033;-75
2021/01/22 11:34:16;;;;;;;14.30;4.23;;;6.50;84.30;;;;;;5052515;28;20025;-74
2021/01/22 11:36:42;;;;;;;11.07;3.80;;;6.40;84.40;;;;;;5053658;28;20031;-76
2021/01/22 11:39:07;;;;;;;13.30;3.80;;;6.50;83.70;;;;;;5053631;28;20532;-76
2021/01/22 11:41:33;;;;;;;16.60;3.57;;;6.40;84.00;;;;;;5053999;28;20091;-76
2021/01/22 11:43:59;;;;;;;15.17;3.70;;;6.40;84.90;;;;;;5053846;28;20060;-77
2021/01/22 11:46:24;;;;;;;12.90;4.47;;;6.40;84.70;;;;;;5053537;28;20124;-76
2021/01/22 11:48:50;;;;;;;12.37;4.40;;;6.50;84.60;;;;;;5053363;28;20041;-76
2021/01/22 11:51:15;;;;;;;15.10;4.67;;;6.60;84.40;;;;;;5053507;28;20110;-78
2021/01/22 11:53:42;;;;;;;13.00;3.90;;;6.70;83.30;;;;;;5053546;28;20032;-77
2021/01/22 11:56:08;;;;;;;10.80;4.10;;;6.80;84.00;;;;;;5053251;28;20029;-75
2021/01/22 11:58:34;;;;;;;13.13;4.30;;;6.90;83.30;;;;;;5053315;28;20112;-78
2021/01/22 12:00:59;;;;;;;13.57;3.60;;;6.90;82.80;;;;;;5052257;28;20108;-77
2021/01/22 12:03:25;;;;;;;10.90;4.20;;;7.00;82.50;;;;;;5045480;28;20491;-78
2021/01/22 12:05:51;;;;;;;11.63;3.80;;;6.90;82.80;;;;;;5044773;28;20460;-77
2021/01/22 12:08:17;;;;;;;16.17;4.60;;;7.00;81.10;;;;;;5052649;28;20036;-77
2021/01/22 12:10:43;;;;;;;10.87;3.30;;;6.90;80.90;;;;;;5035709;28;20115;-77
2021/01/22 12:13:08;;;;;;;14.67;4.43;;;6.90;81.20;;;;;;5053376;28;20177;-76
2021/01/22 12:15:34;;;;;;;14.27;3.77;;;6.90;82.30;;;;;;5052309;28;20036;-75
2021/01/22 12:18:00;;;;;;;17.23;3.93;;;7.10;82.30;;;;;;5053286;28;20065;-76
2021/01/22 12:20:26;;;;;;;12.60;3.43;;;7.20;81.90;;;;;;5053043;28;20140;-76
2021/01/22 12:22:51;;;;;;;16.70;3.60;;;7.30;81.50;;;;;;5051883;28;20061;-76
2021/01/22 12:25:17;;;;;;;13.55;3.50;;;7.30;80.80;;;;;;5053385;28;20029;-77
2021/01/22 12:27:43;;;;;;;10.87;3.40;;;7.20;81.00;;;;;;5056942;28;20436;-76
2021/01/22 12:30:09;;;;;;;14.07;3.50;;;7.20;81.10;;;;;;5056650;28;20037;-77
2021/01/22 12:32:34;;;;;;;12.23;4.80;;;7.30;80.80;;;;;;5053718;28;20033;-77
2021/01/22 12:35:00;;;;;;;14.60;4.20;;;7.30;80.90;;;;;;5055267;28;20363;-77
2021/01/22 12:37:25;;;;;;;10.80;3.20;;;7.30;80.20;;;;;;5056334;28;20029;-77
2021/01/22 12:39:51;;;;;;;14.43;4.30;;;7.30;80.40;;;;;;5055520;28;20386;-77
2021/01/22 12:42:17;;;;;;;16.53;4.13;;;7.30;80.90;;;;;;5056744;28;20402;-76
2021/01/22 12:44:42;;;;;;;12.03;4.00;;;7.40;80.60;;;;;;5038945;28;20566;-76
2021/01/22 12:47:08;;;;;;;13.98;3.60;;;7.40;80.60;;;;;;5056622;28;20061;-77
2021/01/22 12:49:34;;;;;;;9.43;3.65;;;7.50;80.10;;;;;;5056398;28;20041;-78